sensor_id;sensor_type;location;lat;lon;timestamp;temperature;humidity
80540;DHT22;69869;48.036;15.780;2023-05-08T00:00:20;19.40;61.00
80540;DHT22;69869;48.036;15.780;2023-05-08T00:02:45;19.40;60.50
80540;DHT22;69869;48.036;15.780;2023-05-08T00:05:11;19.30;60.20
80540;DHT22;69869;48.036;15.780;2023-05-08T00:07:37;19.40;60.50
80540;DHT22;69869;48.036;15.780;2023-05-08T00:10:07;19.30;59.90
80540;DHT22;69869;48.036;15.780;2023-05-08T00:12:33;19.30;60.50
80540;DHT22;69869;48.036;15.780;2023-05-08T00:14:59;19.30;60.40
80540;DHT22;69869;48.036;15.780;2023-05-08T00:17:25;19.30;60.30
80540;DHT22;69869;48.036;15.780;2023-05-08T00:19:50;19.30;60.90
80540;DHT22;69869;48.036;15.780;2023-05-08T00:22:17;19.30;60.50
80540;DHT22;69869;48.036;15.780;2023-05-08T00:24:43;19.30;60.30
80540;DHT22;69869;48.036;15.780;2023-05-08T00:27:09;19.30;60.70
80540;DHT22;69869;48.036;15.780;2023-05-08T00:29:35;19.30;60.90
80540;DHT22;69869;48.036;15.780;2023-05-08T00:32:01;19.40;61.00
80540;DHT22;69869;48.036;15.780;2023-05-08T00:34:26;19.40;60.40
80540;DHT22;69869;48.036;15.780;2023-05-08T00:36:52;19.40;61.30
80540;DHT22;69869;48.036;15.780;2023-05-08T00:39:18;19.40;60.60
80540;DHT22;69869;48.036;15.780;2023-05-08T00:41:44;19.40;61.60
80540;DHT22;69869;48.036;15.780;2023-05-08T00:44:09;19.40;61.30
80540;DHT22;69869;48.036;15.780;2023-05-08T00:46:36;19.40;61.30
80540;DHT22;69869;48.036;15.780;2023-05-08T00:49:03;19.40;61.70
80540;DHT22;69869;48.036;15.780;2023-05-08T00:51:29;19.40;61.10
80540;DHT22;69869;48.036;15.780;2023-05-08T00:53:56;19.40;61.10
80540;DHT22;69869;48.036;15.780;2023-05-08T00:56:22;19.40;61.30
80540;DHT22;69869;48.036;15.780;2023-05-08T00:58:48;19.40;61.50
80540;DHT22;69869;48.036;15.780;2023-05-08T01:01:15;19.40;61.30
80540;DHT22;69869;48.036;15.780;2023-05-08T01:03:42;19.40;61.80
80540;DHT22;69869;48.036;15.780;2023-05-08T01:06:08;19.40;61.50
80540;DHT22;69869;48.036;15.780;2023-05-08T01:08:34;19.30;61.00
80540;DHT22;69869;48.036;15.780;2023-05-08T01:11:22;19.30;61.20
80540;DHT22;69869;48.036;15.780;2023-05-08T01:14:19;19.40;60.60
80540;DHT22;69869;48.036;15.780;2023-05-08T01:22:09;19.30;60.70
80540;DHT22;69869;48.036;15.780;2023-05-08T01:25:02;19.40;61.60
80540;DHT22;69869;48.036;15.780;2023-05-08T01:28:07;19.40;60.70
80540;DHT22;69869;48.036;15.780;2023-05-08T01:33:23;19.30;60.50
80540;DHT22;69869;48.036;15.780;2023-05-08T01:35:55;19.30;60.70
80540;DHT22;69869;48.036;15.780;2023-05-08T01:38:32;19.30;61.50
80540;DHT22;69869;48.036;15.780;2023-05-08T01:41:13;19.40;61.20
80540;DHT22;69869;48.036;15.780;2023-05-08T01:43:54;19.40;60.80
80540;DHT22;69869;48.036;15.780;2023-05-08T01:46:26;19.30;60.30
80540;DHT22;69869;48.036;15.780;2023-05-08T01:48:59;19.30;60.90
80540;DHT22;69869;48.036;15.780;2023-05-08T01:51:35;19.40;61.30
80540;DHT22;69869;48.036;15.780;2023-05-08T01:54:05;19.30;61.00
80540;DHT22;69869;48.036;15.780;2023-05-08T01:56:33;19.30;61.20
80540;DHT22;69869;48.036;15.780;2023-05-08T01:59:01;19.30;61.20
80540;DHT22;69869;48.036;15.780;2023-05-08T02:01:31;19.30;60.90
80540;DHT22;69869;48.036;15.780;2023-05-08T02:03:59;19.30;61.10
80540;DHT22;69869;48.036;15.780;2023-05-08T02:06:26;19.30;60.80
80540;DHT22;69869;48.036;15.780;2023-05-08T02:08:53;19.30;60.90
80540;DHT22;69869;48.036;15.780;2023-05-08T02:11:21;19.30;60.70
80540;DHT22;69869;48.036;15.780;2023-05-08T02:13:50;19.30;60.40
80540;DHT22;69869;48.036;15.780;2023-05-08T02:16:16;19.30;61.10
80540;DHT22;69869;48.036;15.780;2023-05-08T02:18:47;19.30;60.90
80540;DHT22;69869;48.036;15.780;2023-05-08T02:21:16;19.30;60.90
80540;DHT22;69869;48.036;15.780;2023-05-08T02:23:43;19.30;60.90
80540;DHT22;69869;48.036;15.780;2023-05-08T02:26:11;19.30;60.40
80540;DHT22;69869;48.036;15.780;2023-05-08T02:28:39;19.30;60.30
80540;DHT22;69869;48.036;15.780;2023-05-08T02:31:06;19.30;61.10
80540;DHT22;69869;48.036;15.780;2023-05-08T02:33:33;19.30;60.50
80540;DHT22;69869;48.036;15.780;2023-05-08T02:36:01;19.30;60.80
80540;DHT22;69869;48.036;15.780;2023-05-08T02:38:28;19.40;60.50
80540;DHT22;69869;48.036;15.780;2023-05-08T02:40:57;19.40;61.20
80540;DHT22;69869;48.036;15.780;2023-05-08T02:43:25;19.40;61.40
80540;DHT22;69869;48.036;15.780;2023-05-08T02:48:32;19.40;59.80
80540;DHT22;69869;48.036;15.780;2023-05-08T02:51:19;19.30;60.90
80540;DHT22;69869;48.036;15.780;2023-05-08T02:54:09;19.30;61.00
80540;DHT22;69869;48.036;15.780;2023-05-08T02:56:46;19.30;60.30
80540;DHT22;69869;48.036;15.780;2023-05-08T02:59:29;19.30;60.70
80540;DHT22;69869;48.036;15.780;2023-05-08T03:02:17;19.30;60.80
80540;DHT22;69869;48.036;15.780;2023-05-08T03:04:49;19.40;61.40
80540;DHT22;69869;48.036;15.780;2023-05-08T03:07:15;19.40;62.00
80540;DHT22;69869;48.036;15.780;2023-05-08T03:09:47;19.40;60.50
80540;DHT22;69869;48.036;15.780;2023-05-08T03:12:19;19.40;61.40
80540;DHT22;69869;48.036;15.780;2023-05-08T03:14:54;19.40;61.10
80540;DHT22;69869;48.036;15.780;2023-05-08T03:17:23;19.40;61.40
80540;DHT22;69869;48.036;15.780;2023-05-08T03:19:55;19.30;60.10
80540;DHT22;69869;48.036;15.780;2023-05-08T03:22:22;19.40;60.50
80540;DHT22;69869;48.036;15.780;2023-05-08T03:24:50;19.30;60.80
80540;DHT22;69869;48.036;15.780;2023-05-08T03:27:18;19.30;60.20
80540;DHT22;69869;48.036;15.780;2023-05-08T03:29:45;19.30;61.30
80540;DHT22;69869;48.036;15.780;2023-05-08T03:32:12;19.40;61.90
80540;DHT22;69869;48.036;15.780;2023-05-08T03:34:39;19.40;61.50
80540;DHT22;69869;48.036;15.780;2023-05-08T03:37:05;19.40;62.20
80540;DHT22;69869;48.036;15.780;2023-05-08T03:39:31;19.40;61.80
80540;DHT22;69869;48.036;15.780;2023-05-08T03:41:57;19.40;61.10
80540;DHT22;69869;48.036;15.780;2023-05-08T03:44:23;19.40;61.20
80540;DHT22;69869;48.036;15.780;2023-05-08T03:46:51;19.40;61.50
80540;DHT22;69869;48.036;15.780;2023-05-08T03:49:22;19.40;60.50
80540;DHT22;69869;48.036;15.780;2023-05-08T03:51:50;19.30;61.60
80540;DHT22;69869;48.036;15.780;2023-05-08T03:54:15;19.40;62.10
80540;DHT22;69869;48.036;15.780;2023-05-08T03:56:41;19.40;61.80
80540;DHT22;69869;48.036;15.780;2023-05-08T03:59:20;19.40;61.80
80540;DHT22;69869;48.036;15.780;2023-05-08T04:02:11;19.40;61.10
80540;DHT22;69869;48.036;15.780;2023-05-08T04:04:39;19.40;61.30
80540;DHT22;69869;48.036;15.780;2023-05-08T04:07:13;19.30;60.70
80540;DHT22;69869;48.036;15.780;2023-05-08T04:09:59;19.40;61.30
80540;DHT22;69869;48.036;15.780;2023-05-08T04:15:19;19.40;60.70
80540;DHT22;69869;48.036;15.780;2023-05-08T04:17:53;19.30;60.50
80540;DHT22;69869;48.036;15.780;2023-05-08T04:20:21;19.30;60.80
80540;DHT22;69869;48.036;15.780;2023-05-08T04:22:50;19.30;61.10
80540;DHT22;69869;48.036;15.780;2023-05-08T04:25:20;19.40;61.30
80540;DHT22;69869;48.036;15.780;2023-05-08T04:27:47;19.40;61.60
80540;DHT22;69869;48.036;15.780;2023-05-08T04:30:15;19.30;61.40
80540;DHT22;69869;48.036;15.780;2023-05-08T04:32:42;19.30;61.10
80540;DHT22;69869;48.036;15.780;2023-05-08T04:35:08;19.40;60.90
80540;DHT22;69869;48.036;15.780;2023-05-08T04:37:34;19.30;61.00
80540;DHT22;69869;48.036;15.780;2023-05-08T04:40:00;19.40;60.50
80540;DHT22;69869;48.036;15.780;2023-05-08T04:42:26;19.30;61.10
80540;DHT22;69869;48.036;15.780;2023-05-08T04:44:53;19.40;60.50
80540;DHT22;69869;48.036;15.780;2023-05-08T04:47:19;19.30;61.30
80540;DHT22;69869;48.036;15.780;2023-05-08T04:49:44;19.30;61.20
80540;DHT22;69869;48.036;15.780;2023-05-08T04:52:11;19.30;61.40
80540;DHT22;69869;48.036;15.780;2023-05-08T04:54:36;19.40;60.90
80540;DHT22;69869;48.036;15.780;2023-05-08T04:57:02;19.30;61.00
80540;DHT22;69869;48.036;15.780;2023-05-08T04:59:28;19.30;61.20
80540;DHT22;69869;48.036;15.780;2023-05-08T05:04:22;19.30;60.40
80540;DHT22;69869;48.036;15.780;2023-05-08T05:06:47;19.30;60.40
80540;DHT22;69869;48.036;15.780;2023-05-08T05:09:13;19.30;61.10
80540;DHT22;69869;48.036;15.780;2023-05-08T05:11:39;19.30;61.00
80540;DHT22;69869;48.036;15.780;2023-05-08T05:14:04;19.30;60.20
80540;DHT22;69869;48.036;15.780;2023-05-08T05:16:31;19.30;60.20
80540;DHT22;69869;48.036;15.780;2023-05-08T05:18:58;19.30;60.50
80540;DHT22;69869;48.036;15.780;2023-05-08T05:21:23;19.40;60.70
80540;DHT22;69869;48.036;15.780;2023-05-08T05:23:49;19.30;60.70
80540;DHT22;69869;48.036;15.780;2023-05-08T05:26:14;19.30;61.40
80540;DHT22;69869;48.036;15.780;2023-05-08T05:28:40;19.30;60.50
80540;DHT22;69869;48.036;15.780;2023-05-08T05:31:06;19.30;60.70
80540;DHT22;69869;48.036;15.780;2023-05-08T05:33:32;19.40;61.60
80540;DHT22;69869;48.036;15.780;2023-05-08T05:35:58;19.40;61.00
80540;DHT22;69869;48.036;15.780;2023-05-08T05:38:23;19.40;60.50
80540;DHT22;69869;48.036;15.780;2023-05-08T05:40:49;19.40;59.00
80540;DHT22;69869;48.036;15.780;2023-05-08T05:43:15;19.30;56.40
80540;DHT22;69869;48.036;15.780;2023-05-08T05:45:41;19.20;55.40
80540;DHT22;69869;48.036;15.780;2023-05-08T05:48:06;19.20;54.50
80540;DHT22;69869;48.036;15.780;2023-05-08T05:50:32;19.10;53.40
80540;DHT22;69869;48.036;15.780;2023-05-08T05:52:58;19.10;52.90
80540;DHT22;69869;48.036;15.780;2023-05-08T05:55:24;19.10;52.50
80540;DHT22;69869;48.036;15.780;2023-05-08T05:57:49;19.10;52.30
80540;DHT22;69869;48.036;15.780;2023-05-08T06:00:15;19.00;52.30
80540;DHT22;69869;48.036;15.780;2023-05-08T06:02:42;19.00;52.50
80540;DHT22;69869;48.036;15.780;2023-05-08T06:05:08;19.00;52.20
80540;DHT22;69869;48.036;15.780;2023-05-08T06:07:34;19.00;51.90
80540;DHT22;69869;48.036;15.780;2023-05-08T06:10:00;19.00;51.50
80540;DHT22;69869;48.036;15.780;2023-05-08T06:12:25;19.00;50.20
80540;DHT22;69869;48.036;15.780;2023-05-08T06:14:52;18.90;50.70
80540;DHT22;69869;48.036;15.780;2023-05-08T06:17:18;18.90;50.10
80540;DHT22;69869;48.036;15.780;2023-05-08T06:19:44;18.80;49.80
80540;DHT22;69869;48.036;15.780;2023-05-08T06:22:15;18.90;49.30
80540;DHT22;69869;48.036;15.780;2023-05-08T06:24:41;18.90;49.70
80540;DHT22;69869;48.036;15.780;2023-05-08T06:27:07;18.80;49.20
80540;DHT22;69869;48.036;15.780;2023-05-08T06:29:33;18.90;48.70
80540;DHT22;69869;48.036;15.780;2023-05-08T06:31:59;18.80;48.70
80540;DHT22;69869;48.036;15.780;2023-05-08T06:34:24;18.80;50.00
80540;DHT22;69869;48.036;15.780;2023-05-08T06:36:50;18.80;49.60
80540;DHT22;69869;48.036;15.780;2023-05-08T06:39:15;18.80;48.60
80540;DHT22;69869;48.036;15.780;2023-05-08T06:41:41;18.70;49.20
80540;DHT22;69869;48.036;15.780;2023-05-08T06:44:07;18.70;49.00
80540;DHT22;69869;48.036;15.780;2023-05-08T06:46:32;18.70;49.10
80540;DHT22;69869;48.036;15.780;2023-05-08T06:48:58;18.70;48.80
80540;DHT22;69869;48.036;15.780;2023-05-08T06:51:23;18.70;48.60
80540;DHT22;69869;48.036;15.780;2023-05-08T06:53:49;18.70;48.50
80540;DHT22;69869;48.036;15.780;2023-05-08T06:56:15;18.70;48.60
80540;DHT22;69869;48.036;15.780;2023-05-08T06:58:40;18.70;48.40
80540;DHT22;69869;48.036;15.780;2023-05-08T07:01:06;18.60;48.10
80540;DHT22;69869;48.036;15.780;2023-05-08T07:03:32;18.60;47.50
80540;DHT22;69869;48.036;15.780;2023-05-08T07:05:57;18.70;48.20
80540;DHT22;69869;48.036;15.780;2023-05-08T07:08:23;18.70;48.00
80540;DHT22;69869;48.036;15.780;2023-05-08T07:10:48;18.70;47.80
80540;DHT22;69869;48.036;15.780;2023-05-08T07:13:16;18.70;48.00
80540;DHT22;69869;48.036;15.780;2023-05-08T07:15:44;18.70;48.10
80540;DHT22;69869;48.036;15.780;2023-05-08T07:18:10;18.70;47.40
80540;DHT22;69869;48.036;15.780;2023-05-08T07:20:35;18.70;47.90
80540;DHT22;69869;48.036;15.780;2023-05-08T07:23:01;18.70;47.70
80540;DHT22;69869;48.036;15.780;2023-05-08T07:25:27;18.70;47.30
80540;DHT22;69869;48.036;15.780;2023-05-08T07:27:52;18.70;48.60
80540;DHT22;69869;48.036;15.780;2023-05-08T07:30:18;18.70;47.50
80540;DHT22;69869;48.036;15.780;2023-05-08T07:32:44;18.70;48.00
80540;DHT22;69869;48.036;15.780;2023-05-08T07:35:09;18.70;47.00
80540;DHT22;69869;48.036;15.780;2023-05-08T07:37:37;18.70;47.40
80540;DHT22;69869;48.036;15.780;2023-05-08T07:40:03;18.70;48.70
80540;DHT22;69869;48.036;15.780;2023-05-08T07:42:29;18.70;49.70
80540;DHT22;69869;48.036;15.780;2023-05-08T07:44:55;18.70;47.60
80540;DHT22;69869;48.036;15.780;2023-05-08T07:47:20;18.60;48.20
80540;DHT22;69869;48.036;15.780;2023-05-08T07:49:46;18.70;51.20
80540;DHT22;69869;48.036;15.780;2023-05-08T07:52:11;18.70;52.10
80540;DHT22;69869;48.036;15.780;2023-05-08T07:54:37;18.70;52.40
80540;DHT22;69869;48.036;15.780;2023-05-08T07:57:03;18.80;53.80
80540;DHT22;69869;48.036;15.780;2023-05-08T07:59:29;18.70;54.10
80540;DHT22;69869;48.036;15.780;2023-05-08T08:01:54;18.80;53.80
80540;DHT22;69869;48.036;15.780;2023-05-08T08:04:20;18.70;55.20
80540;DHT22;69869;48.036;15.780;2023-05-08T08:06:46;18.70;55.00
80540;DHT22;69869;48.036;15.780;2023-05-08T08:09:12;18.70;55.20
80540;DHT22;69869;48.036;15.780;2023-05-08T08:11:37;18.80;54.60
80540;DHT22;69869;48.036;15.780;2023-05-08T08:14:03;18.70;53.90
80540;DHT22;69869;48.036;15.780;2023-05-08T08:16:28;18.70;54.10
80540;DHT22;69869;48.036;15.780;2023-05-08T08:18:54;18.70;54.40
80540;DHT22;69869;48.036;15.780;2023-05-08T08:21:20;18.70;54.10
80540;DHT22;69869;48.036;15.780;2023-05-08T08:23:45;18.70;55.20
80540;DHT22;69869;48.036;15.780;2023-05-08T08:26:11;18.70;53.60
80540;DHT22;69869;48.036;15.780;2023-05-08T08:28:37;18.70;54.00
80540;DHT22;69869;48.036;15.780;2023-05-08T08:31:02;18.70;54.10
80540;DHT22;69869;48.036;15.780;2023-05-08T08:33:28;18.70;54.20
80540;DHT22;69869;48.036;15.780;2023-05-08T08:35:54;18.60;54.60
80540;DHT22;69869;48.036;15.780;2023-05-08T08:38:20;18.60;54.10
80540;DHT22;69869;48.036;15.780;2023-05-08T08:40:46;18.60;54.30
80540;DHT22;69869;48.036;15.780;2023-05-08T08:43:11;18.70;54.90
80540;DHT22;69869;48.036;15.780;2023-05-08T08:45:37;18.70;51.90
80540;DHT22;69869;48.036;15.780;2023-05-08T08:48:03;18.30;49.10
80540;DHT22;69869;48.036;15.780;2023-05-08T08:50:31;18.20;50.80
80540;DHT22;69869;48.036;15.780;2023-05-08T08:53:15;18.30;51.00
80540;DHT22;69869;48.036;15.780;2023-05-08T08:55:46;18.30;51.00
80540;DHT22;69869;48.036;15.780;2023-05-08T09:00:42;18.50;51.50
80540;DHT22;69869;48.036;15.780;2023-05-08T09:03:08;18.50;51.50
80540;DHT22;69869;48.036;15.780;2023-05-08T09:05:35;18.50;51.50
80540;DHT22;69869;48.036;15.780;2023-05-08T09:08:01;18.60;51.60
80540;DHT22;69869;48.036;15.780;2023-05-08T09:10:30;18.60;51.70
80540;DHT22;69869;48.036;15.780;2023-05-08T09:12:56;18.60;51.90
80540;DHT22;69869;48.036;15.780;2023-05-08T09:15:21;18.60;52.00
80540;DHT22;69869;48.036;15.780;2023-05-08T09:17:47;18.60;52.20
80540;DHT22;69869;48.036;15.780;2023-05-08T09:20:13;18.60;52.30
80540;DHT22;69869;48.036;15.780;2023-05-08T09:22:41;18.60;52.50
80540;DHT22;69869;48.036;15.780;2023-05-08T09:25:08;18.60;52.60
80540;DHT22;69869;48.036;15.780;2023-05-08T09:27:34;18.60;52.70
80540;DHT22;69869;48.036;15.780;2023-05-08T09:32:29;18.60;52.90
80540;DHT22;69869;48.036;15.780;2023-05-08T09:34:55;18.60;52.90
80540;DHT22;69869;48.036;15.780;2023-05-08T09:37:21;18.60;53.00
80540;DHT22;69869;48.036;15.780;2023-05-08T09:39:47;18.60;53.00
80540;DHT22;69869;48.036;15.780;2023-05-08T09:42:13;18.60;53.10
80540;DHT22;69869;48.036;15.780;2023-05-08T09:47:13;18.60;53.20
80540;DHT22;69869;48.036;15.780;2023-05-08T09:49:54;18.60;53.30
80540;DHT22;69869;48.036;15.780;2023-05-08T09:52:21;18.60;53.30
80540;DHT22;69869;48.036;15.780;2023-05-08T09:54:51;18.60;53.40
80540;DHT22;69869;48.036;15.780;2023-05-08T09:57:24;18.60;53.40
80540;DHT22;69869;48.036;15.780;2023-05-08T09:59:50;18.60;53.50
80540;DHT22;69869;48.036;15.780;2023-05-08T10:02:16;18.60;53.50
80540;DHT22;69869;48.036;15.780;2023-05-08T10:04:42;18.60;53.50
80540;DHT22;69869;48.036;15.780;2023-05-08T10:07:07;18.60;53.60
80540;DHT22;69869;48.036;15.780;2023-05-08T10:09:33;18.60;53.50
80540;DHT22;69869;48.036;15.780;2023-05-08T10:11:59;18.60;53.60
80540;DHT22;69869;48.036;15.780;2023-05-08T10:14:24;18.60;53.70
80540;DHT22;69869;48.036;15.780;2023-05-08T10:16:52;18.60;53.70
80540;DHT22;69869;48.036;15.780;2023-05-08T10:19:22;18.50;53.70
80540;DHT22;69869;48.036;15.780;2023-05-08T10:21:53;18.60;53.70
80540;DHT22;69869;48.036;15.780;2023-05-08T10:24:28;18.60;53.70
80540;DHT22;69869;48.036;15.780;2023-05-08T10:27:00;18.60;53.80
80540;DHT22;69869;48.036;15.780;2023-05-08T10:29:33;18.60;53.90
80540;DHT22;69869;48.036;15.780;2023-05-08T10:32:02;18.50;53.70
80540;DHT22;69869;48.036;15.780;2023-05-08T10:34:30;18.60;53.80
80540;DHT22;69869;48.036;15.780;2023-05-08T10:36:56;18.60;53.90
80540;DHT22;69869;48.036;15.780;2023-05-08T10:39:22;18.60;53.90
80540;DHT22;69869;48.036;15.780;2023-05-08T10:41:50;18.60;53.90
80540;DHT22;69869;48.036;15.780;2023-05-08T10:44:16;18.60;54.00
80540;DHT22;69869;48.036;15.780;2023-05-08T10:57:07;18.60;54.70
80540;DHT22;69869;48.036;15.780;2023-05-08T10:59:34;18.60;54.10
80540;DHT22;69869;48.036;15.780;2023-05-08T11:02:06;18.50;54.00
80540;DHT22;69869;48.036;15.780;2023-05-08T11:04:33;18.60;54.20
80540;DHT22;69869;48.036;15.780;2023-05-08T11:06:59;18.50;54.00
80540;DHT22;69869;48.036;15.780;2023-05-08T11:12:25;18.60;54.20
80540;DHT22;69869;48.036;15.780;2023-05-08T11:15:02;18.60;54.20
80540;DHT22;69869;48.036;15.780;2023-05-08T11:17:32;18.50;54.20
80540;DHT22;69869;48.036;15.780;2023-05-08T11:20:00;18.60;54.20
80540;DHT22;69869;48.036;15.780;2023-05-08T11:22:27;18.60;54.30
80540;DHT22;69869;48.036;15.780;2023-05-08T11:28:31;18.50;54.20
80540;DHT22;69869;48.036;15.780;2023-05-08T11:30:32;18.60;54.30
80540;DHT22;69869;48.036;15.780;2023-05-08T11:36:19;18.60;54.40
80540;DHT22;69869;48.036;15.780;2023-05-08T11:38:37;18.60;54.40
80540;DHT22;69869;48.036;15.780;2023-05-08T11:46:51;18.50;54.30
80540;DHT22;69869;48.036;15.780;2023-05-08T11:49:19;18.60;54.40
80540;DHT22;69869;48.036;15.780;2023-05-08T11:51:51;18.60;54.40
80540;DHT22;69869;48.036;15.780;2023-05-08T11:54:20;18.60;54.40
80540;DHT22;69869;48.036;15.780;2023-05-08T11:56:52;18.60;54.50
80540;DHT22;69869;48.036;15.780;2023-05-08T11:59:21;18.60;54.50
80540;DHT22;69869;48.036;15.780;2023-05-08T12:01:48;18.60;54.50
80540;DHT22;69869;48.036;15.780;2023-05-08T12:04:14;18.60;54.50
80540;DHT22;69869;48.036;15.780;2023-05-08T12:06:41;18.60;55.00
80540;DHT22;69869;48.036;15.780;2023-05-08T12:09:14;18.60;54.50
80540;DHT22;69869;48.036;15.780;2023-05-08T12:11:41;18.60;54.50
80540;DHT22;69869;48.036;15.780;2023-05-08T12:14:09;18.60;54.60
80540;DHT22;69869;48.036;15.780;2023-05-08T12:16:36;18.60;54.60
80540;DHT22;69869;48.036;15.780;2023-05-08T12:19:03;18.60;54.60
80540;DHT22;69869;48.036;15.780;2023-05-08T12:21:29;18.50;54.50
80540;DHT22;69869;48.036;15.780;2023-05-08T12:23:56;18.60;54.60
80540;DHT22;69869;48.036;15.780;2023-05-08T12:26:22;18.60;54.70
80540;DHT22;69869;48.036;15.780;2023-05-08T12:28:54;18.60;54.60
80540;DHT22;69869;48.036;15.780;2023-05-08T12:31:21;18.60;54.60
80540;DHT22;69869;48.036;15.780;2023-05-08T12:33:47;18.60;54.70
80540;DHT22;69869;48.036;15.780;2023-05-08T12:36:13;18.60;54.70
80540;DHT22;69869;48.036;15.780;2023-05-08T12:38:38;18.60;54.60
80540;DHT22;69869;48.036;15.780;2023-05-08T12:41:04;18.60;54.60
80540;DHT22;69869;48.036;15.780;2023-05-08T12:43:36;18.60;54.70
80540;DHT22;69869;48.036;15.780;2023-05-08T12:46:03;18.60;54.70
80540;DHT22;69869;48.036;15.780;2023-05-08T12:48:29;18.60;54.70
80540;DHT22;69869;48.036;15.780;2023-05-08T12:51:03;18.60;54.70
80540;DHT22;69869;48.036;15.780;2023-05-08T12:53:31;18.60;54.70
80540;DHT22;69869;48.036;15.780;2023-05-08T12:56:01;18.60;54.70
80540;DHT22;69869;48.036;15.780;2023-05-08T12:58:32;18.60;54.80
80540;DHT22;69869;48.036;15.780;2023-05-08T13:01:06;18.60;54.70
80540;DHT22;69869;48.036;15.780;2023-05-08T13:03:34;18.60;54.80
80540;DHT22;69869;48.036;15.780;2023-05-08T13:06:00;18.60;54.80
80540;DHT22;69869;48.036;15.780;2023-05-08T13:08:33;18.60;54.80
80540;DHT22;69869;48.036;15.780;2023-05-08T13:11:00;18.60;54.80
80540;DHT22;69869;48.036;15.780;2023-05-08T13:13:28;18.60;54.80
80540;DHT22;69869;48.036;15.780;2023-05-08T13:15:54;18.60;55.40
80540;DHT22;69869;48.036;15.780;2023-05-08T13:18:23;18.60;54.80
80540;DHT22;69869;48.036;15.780;2023-05-08T13:20:49;18.60;54.80
80540;DHT22;69869;48.036;15.780;2023-05-08T13:23:15;18.60;54.80
80540;DHT22;69869;48.036;15.780;2023-05-08T13:25:41;18.60;55.40
80540;DHT22;69869;48.036;15.780;2023-05-08T13:28:07;18.60;54.80
80540;DHT22;69869;48.036;15.780;2023-05-08T13:30:34;18.60;54.90
80540;DHT22;69869;48.036;15.780;2023-05-08T13:33:01;18.60;54.90
80540;DHT22;69869;48.036;15.780;2023-05-08T13:35:27;18.60;54.90
80540;DHT22;69869;48.036;15.780;2023-05-08T13:37:53;18.60;54.90
80540;DHT22;69869;48.036;15.780;2023-05-08T13:40:19;18.60;54.90
80540;DHT22;69869;48.036;15.780;2023-05-08T13:42:45;18.60;54.90
80540;DHT22;69869;48.036;15.780;2023-05-08T13:45:11;18.60;54.90
80540;DHT22;69869;48.036;15.780;2023-05-08T13:47:44;18.60;54.90
80540;DHT22;69869;48.036;15.780;2023-05-08T13:50:12;18.60;54.90
80540;DHT22;69869;48.036;15.780;2023-05-08T13:52:39;18.60;54.90
80540;DHT22;69869;48.036;15.780;2023-05-08T13:55:09;18.60;55.50
80540;DHT22;69869;48.036;15.780;2023-05-08T13:57:35;18.60;54.90
80540;DHT22;69869;48.036;15.780;2023-05-08T14:00:05;18.60;55.00
80540;DHT22;69869;48.036;15.780;2023-05-08T14:02:31;18.60;55.00
80540;DHT22;69869;48.036;15.780;2023-05-08T14:04:57;18.60;55.00
80540;DHT22;69869;48.036;15.780;2023-05-08T14:07:23;18.60;55.00
80540;DHT22;69869;48.036;15.780;2023-05-08T14:09:48;18.60;55.00
80540;DHT22;69869;48.036;15.780;2023-05-08T14:12:14;18.60;55.20
80540;DHT22;69869;48.036;15.780;2023-05-08T14:14:40;18.60;55.00
80540;DHT22;69869;48.036;15.780;2023-05-08T14:17:06;18.60;55.00
80540;DHT22;69869;48.036;15.780;2023-05-08T14:19:32;18.60;55.00
80540;DHT22;69869;48.036;15.780;2023-05-08T14:21:58;18.60;55.00
80540;DHT22;69869;48.036;15.780;2023-05-08T14:24:23;18.60;55.00
80540;DHT22;69869;48.036;15.780;2023-05-08T14:26:49;18.60;55.00
80540;DHT22;69869;48.036;15.780;2023-05-08T14:29:15;18.60;55.00
80540;DHT22;69869;48.036;15.780;2023-05-08T14:31:40;18.60;55.10
80540;DHT22;69869;48.036;15.780;2023-05-08T14:34:06;18.60;55.00
80540;DHT22;69869;48.036;15.780;2023-05-08T14:36:32;18.60;55.00
80540;DHT22;69869;48.036;15.780;2023-05-08T14:38:57;18.60;55.10
80540;DHT22;69869;48.036;15.780;2023-05-08T14:41:27;18.60;55.00
80540;DHT22;69869;48.036;15.780;2023-05-08T14:43:53;18.60;55.10
80540;DHT22;69869;48.036;15.780;2023-05-08T14:46:18;18.60;55.10
80540;DHT22;69869;48.036;15.780;2023-05-08T14:48:44;18.60;55.10
80540;DHT22;69869;48.036;15.780;2023-05-08T14:51:10;18.60;55.10
80540;DHT22;69869;48.036;15.780;2023-05-08T14:53:37;18.60;55.10
80540;DHT22;69869;48.036;15.780;2023-05-08T14:56:02;18.60;55.10
80540;DHT22;69869;48.036;15.780;2023-05-08T14:58:28;18.60;55.10
80540;DHT22;69869;48.036;15.780;2023-05-08T15:00:53;18.60;55.10
80540;DHT22;69869;48.036;15.780;2023-05-08T15:03:19;18.60;55.10
80540;DHT22;69869;48.036;15.780;2023-05-08T15:05:45;18.60;55.10
80540;DHT22;69869;48.036;15.780;2023-05-08T15:08:12;18.60;55.10
80540;DHT22;69869;48.036;15.780;2023-05-08T15:10:37;18.60;55.10
80540;DHT22;69869;48.036;15.780;2023-05-08T15:13:03;18.60;55.10
80540;DHT22;69869;48.036;15.780;2023-05-08T15:15:29;18.60;55.20
80540;DHT22;69869;48.036;15.780;2023-05-08T15:17:55;18.60;55.70
80540;DHT22;69869;48.036;15.780;2023-05-08T15:20:20;18.60;55.10
80540;DHT22;69869;48.036;15.780;2023-05-08T15:22:46;18.60;55.20
80540;DHT22;69869;48.036;15.780;2023-05-08T15:25:12;18.60;55.20
80540;DHT22;69869;48.036;15.780;2023-05-08T15:27:37;18.60;55.20
80540;DHT22;69869;48.036;15.780;2023-05-08T15:30:04;18.60;55.20
80540;DHT22;69869;48.036;15.780;2023-05-08T15:32:30;18.60;55.20
80540;DHT22;69869;48.036;15.780;2023-05-08T15:34:55;18.60;55.20
80540;DHT22;69869;48.036;15.780;2023-05-08T15:37:21;18.60;55.20
80540;DHT22;69869;48.036;15.780;2023-05-08T15:39:47;18.60;55.20
80540;DHT22;69869;48.036;15.780;2023-05-08T15:42:14;18.60;55.20
80540;DHT22;69869;48.036;15.780;2023-05-08T15:44:39;18.60;55.20
80540;DHT22;69869;48.036;15.780;2023-05-08T15:47:05;18.60;55.20
80540;DHT22;69869;48.036;15.780;2023-05-08T15:49:31;18.50;55.10
80540;DHT22;69869;48.036;15.780;2023-05-08T15:51:56;18.60;55.20
80540;DHT22;69869;48.036;15.780;2023-05-08T15:54:22;18.60;55.20
80540;DHT22;69869;48.036;15.780;2023-05-08T15:56:47;18.50;55.10
80540;DHT22;69869;48.036;15.780;2023-05-08T15:59:13;18.60;55.10
80540;DHT22;69869;48.036;15.780;2023-05-08T16:01:39;18.60;55.00
80540;DHT22;69869;48.036;15.780;2023-05-08T16:04:06;18.50;54.90
80540;DHT22;69869;48.036;15.780;2023-05-08T16:06:32;18.50;54.90